createdAt,value
2023-02-09T00:00:26.825Z,100754.00
2023-02-09T00:03:00.022Z,100755.00
2023-02-09T00:05:33.405Z,100752.00
2023-02-09T00:08:06.371Z,100740.00
2023-02-09T00:10:39.216Z,100747.00
2023-02-09T00:13:27.952Z,100761.00
2023-02-09T00:16:03.892Z,100754.00
2023-02-09T00:18:38.520Z,100748.00
2023-02-09T00:21:13.128Z,100749.00
2023-02-09T00:23:46.125Z,100745.00
2023-02-09T00:26:19.096Z,100761.00
2023-02-09T00:28:52.209Z,100765.00
2023-02-09T00:31:25.874Z,100761.00
2023-02-09T00:33:58.880Z,100755.00
2023-02-09T00:36:32.385Z,100757.00
2023-02-09T00:39:05.298Z,100756.00
2023-02-09T00:41:55.878Z,100765.00
2023-02-09T00:44:28.758Z,100756.00
2023-02-09T00:47:05.935Z,100760.00
2023-02-09T00:49:38.819Z,100766.00
2023-02-09T00:52:11.852Z,100762.00
2023-02-09T00:54:44.796Z,100757.00
2023-02-09T00:57:17.621Z,100762.00
2023-02-09T00:59:53.724Z,100763.00
2023-02-09T01:02:26.794Z,100752.00
2023-02-09T01:04:59.984Z,100750.00
2023-02-09T01:07:32.839Z,100754.00
2023-02-09T01:10:05.833Z,100744.00
2023-02-09T01:12:38.826Z,100741.00
2023-02-09T01:15:12.697Z,100742.00
2023-02-09T01:17:46.739Z,100749.00
2023-02-09T01:20:20.207Z,100730.00
2023-02-09T01:22:53.167Z,100741.00
2023-02-09T01:25:26.255Z,100745.00
2023-02-09T01:27:59.353Z,100742.00
2023-02-09T01:30:32.492Z,100743.00
2023-02-09T01:33:05.420Z,100742.00
2023-02-09T01:35:38.351Z,100749.00
2023-02-09T01:38:11.228Z,100743.00
2023-02-09T01:40:45.592Z,100751.00
2023-02-09T01:43:19.000Z,100750.00
2023-02-09T01:45:53.759Z,100743.00
2023-02-09T01:48:28.670Z,100742.00
2023-02-09T01:51:03.351Z,100739.00
2023-02-09T01:53:37.156Z,100739.00
2023-02-09T01:56:12.203Z,100749.00
2023-02-09T01:58:45.283Z,100742.00
2023-02-09T02:01:21.249Z,100748.00
2023-02-09T02:03:53.022Z,100746.00
2023-02-09T02:06:25.937Z,100751.00
2023-02-09T02:09:03.491Z,100743.00
2023-02-09T02:11:36.511Z,100750.00
2023-02-09T02:14:09.630Z,100745.00
2023-02-09T02:16:56.140Z,100748.00
2023-02-09T02:19:49.156Z,100742.00
2023-02-09T02:22:33.293Z,100741.00
2023-02-09T02:25:16.824Z,100734.00
2023-02-09T02:27:51.587Z,100737.00
2023-02-09T02:30:50.989Z,100731.00
2023-02-09T02:33:28.804Z,100729.00
2023-02-09T02:36:15.798Z,100721.00
2023-02-09T02:38:54.756Z,100728.00
2023-02-09T02:41:32.398Z,100723.00
2023-02-09T02:44:13.074Z,100727.00
2023-02-09T02:46:48.056Z,100716.00
2023-02-09T02:49:40.921Z,100729.00
2023-02-09T02:52:14.967Z,100720.00
2023-02-09T02:54:55.452Z,100727.00
2023-02-09T02:57:30.319Z,100730.00
2023-02-09T03:00:11.076Z,100734.00
2023-02-09T03:02:46.049Z,100734.00
2023-02-09T03:05:20.160Z,100734.00
2023-02-09T03:07:53.120Z,100727.00
2023-02-09T03:10:40.295Z,100723.00
2023-02-09T03:13:37.623Z,100737.00
2023-02-09T03:16:31.963Z,100735.00
2023-02-09T03:19:22.681Z,100737.00
2023-02-09T03:22:00.249Z,100740.00
2023-02-09T03:24:44.066Z,100743.00
2023-02-09T03:27:25.238Z,100730.00
2023-02-09T03:30:02.857Z,100733.00
2023-02-09T03:32:36.344Z,100738.00
2023-02-09T03:35:10.272Z,100724.00
2023-02-09T03:37:43.212Z,100743.00
2023-02-09T03:40:16.857Z,100739.00
2023-02-09T03:42:49.581Z,100736.00
2023-02-09T03:45:22.410Z,100743.00
2023-02-09T03:47:55.290Z,100744.00
2023-02-09T03:50:28.183Z,100740.00
2023-02-09T03:53:01.117Z,100741.00
2023-02-09T03:55:33.772Z,100745.00
2023-02-09T03:58:06.618Z,100749.00
2023-02-09T04:00:39.680Z,100736.00
2023-02-09T04:03:12.862Z,100733.00
2023-02-09T04:05:45.659Z,100732.00
2023-02-09T04:08:23.255Z,100735.00
2023-02-09T04:10:56.268Z,100740.00
2023-02-09T04:13:29.355Z,100739.00
2023-02-09T04:16:02.362Z,100745.00
2023-02-09T04:18:39.388Z,100745.00
2023-02-09T04:21:12.221Z,100742.00
2023-02-09T04:23:45.711Z,100753.00
2023-02-09T04:26:22.021Z,100753.00
2023-02-09T04:28:53.598Z,100747.00
2023-02-09T04:31:26.600Z,100755.00
2023-02-09T04:33:59.577Z,100746.00
2023-02-09T04:36:32.223Z,100741.00
2023-02-09T04:39:05.401Z,100750.00
2023-02-09T04:41:38.228Z,100744.00
2023-02-09T04:44:11.126Z,100750.00
2023-02-09T04:46:45.621Z,100749.00
2023-02-09T04:49:18.227Z,100755.00
2023-02-09T04:51:53.543Z,100752.00
2023-02-09T04:54:26.420Z,100765.00
2023-02-09T04:57:00.638Z,100754.00
2023-02-09T04:59:40.287Z,100758.00
2023-02-09T05:02:13.633Z,100756.00
2023-02-09T05:04:46.711Z,100762.00
2023-02-09T05:07:19.315Z,100766.00
2023-02-09T05:09:52.019Z,100766.00
2023-02-09T05:12:29.008Z,100760.00
2023-02-09T05:15:01.928Z,100769.00
2023-02-09T05:17:38.911Z,100764.00
2023-02-09T05:20:12.156Z,100761.00
2023-02-09T05:22:46.205Z,100753.00
2023-02-09T05:25:19.099Z,100763.00
2023-02-09T05:27:51.906Z,100760.00
2023-02-09T05:30:24.948Z,100771.00
2023-02-09T05:32:58.038Z,100771.00
2023-02-09T05:35:31.251Z,100775.00
2023-02-09T05:38:04.429Z,100776.00
2023-02-09T05:40:37.298Z,100770.00
2023-02-09T05:43:10.159Z,100775.00
2023-02-09T05:45:43.264Z,100770.00
2023-02-09T05:48:16.119Z,100782.00
2023-02-09T05:50:50.000Z,100778.00
2023-02-09T05:53:22.827Z,100774.00
2023-02-09T05:55:55.675Z,100783.00
2023-02-09T05:58:28.747Z,100787.00
2023-02-09T06:01:01.988Z,100782.00
2023-02-09T06:03:35.161Z,100786.00
2023-02-09T06:06:08.785Z,100789.00
2023-02-09T06:08:48.939Z,100794.00
2023-02-09T06:11:15.854Z,100798.00
2023-02-09T06:13:48.791Z,100791.00
2023-02-09T06:16:21.736Z,100766.00
2023-02-09T06:18:58.062Z,100795.00
2023-02-09T06:21:31.570Z,100810.00
2023-02-09T06:24:04.474Z,100800.00
2023-02-09T06:26:37.419Z,100807.00
2023-02-09T06:29:11.220Z,100812.00
2023-02-09T06:31:44.674Z,100810.00
2023-02-09T06:34:19.077Z,100815.00
2023-02-09T06:36:52.073Z,100819.00
2023-02-09T06:39:26.294Z,100824.00
2023-02-09T06:41:59.480Z,100820.00
2023-02-09T06:44:32.392Z,100820.00
2023-02-09T06:47:05.330Z,100825.00
2023-02-09T06:49:38.375Z,100825.00
2023-02-09T06:52:11.452Z,100831.00
2023-02-09T06:54:45.196Z,100834.00
2023-02-09T06:57:18.363Z,100833.00
2023-02-09T06:59:51.391Z,100833.00
2023-02-09T07:02:24.248Z,100846.00
2023-02-09T07:04:57.251Z,100837.00
2023-02-09T07:07:35.986Z,100839.00
2023-02-09T07:10:10.286Z,100843.00
2023-02-09T07:12:49.097Z,100848.00
2023-02-09T07:15:21.887Z,100845.00
2023-02-09T07:17:54.946Z,100844.00
2023-02-09T07:20:28.351Z,100844.00
2023-02-09T07:23:02.465Z,100846.00
2023-02-09T07:25:35.760Z,100849.00
2023-02-09T07:28:09.068Z,100855.00
2023-02-09T07:30:43.278Z,100856.00
2023-02-09T07:33:16.517Z,100866.00
2023-02-09T07:35:49.446Z,100874.00
2023-02-09T07:38:23.000Z,100873.00
2023-02-09T07:40:56.030Z,100869.00
2023-02-09T07:43:29.062Z,100878.00
2023-02-09T07:46:06.270Z,100873.00
2023-02-09T07:48:39.729Z,100884.00
2023-02-09T07:51:19.718Z,100886.00
2023-02-09T07:53:52.524Z,100900.00
2023-02-09T07:56:33.021Z,100891.00
2023-02-09T07:59:06.222Z,100908.00
2023-02-09T08:01:39.461Z,100899.00
2023-02-09T08:04:12.871Z,100901.00
2023-02-09T08:06:53.678Z,100905.00
2023-02-09T08:09:26.712Z,100915.00
2023-02-09T08:12:02.008Z,100922.00
2023-02-09T08:14:37.359Z,100922.00
2023-02-09T08:17:25.934Z,100927.00
2023-02-09T08:20:00.689Z,100928.00
2023-02-09T08:22:35.960Z,100935.00
2023-02-09T08:25:09.806Z,100936.00
2023-02-09T08:27:45.210Z,100936.00
2023-02-09T08:30:19.814Z,100940.00
2023-02-09T08:32:52.768Z,100947.00
2023-02-09T08:35:25.688Z,100959.00
2023-02-09T08:37:58.481Z,100959.00
2023-02-09T08:40:31.433Z,100956.00
2023-02-09T08:43:04.435Z,100962.00
2023-02-09T08:45:38.545Z,100965.00
2023-02-09T08:48:14.730Z,100965.00
2023-02-09T08:50:51.722Z,100969.00
2023-02-09T08:53:24.693Z,100980.00
2023-02-09T08:55:57.757Z,100981.00
2023-02-09T08:58:31.993Z,100982.00
2023-02-09T09:01:05.007Z,100985.00
2023-02-09T09:03:37.807Z,100989.00
2023-02-09T09:06:12.587Z,100993.00
2023-02-09T09:08:45.931Z,100994.00
2023-02-09T09:11:19.275Z,101001.00
2023-02-09T09:13:52.115Z,101007.00
2023-02-09T09:16:26.937Z,101004.00
2023-02-09T09:19:02.347Z,101011.00
2023-02-09T09:21:35.162Z,101009.00
2023-02-09T09:24:08.130Z,101017.00
2023-02-09T09:26:41.625Z,101015.00
2023-02-09T09:29:14.846Z,101012.00
2023-02-09T09:31:48.237Z,101021.00
2023-02-09T09:34:25.627Z,101019.00
2023-02-09T09:36:58.389Z,101019.00
2023-02-09T09:39:31.273Z,101016.00
2023-02-09T09:42:04.535Z,101029.00
2023-02-09T09:44:39.422Z,101003.00
2023-02-09T09:47:19.776Z,101025.00
2023-02-09T09:49:53.118Z,101030.00
2023-02-09T09:52:28.084Z,101024.00
2023-02-09T09:55:03.557Z,101027.00
2023-02-09T09:57:37.935Z,101028.00
2023-02-09T10:00:12.761Z,101024.00
2023-02-09T10:02:47.093Z,101035.00
2023-02-09T10:05:22.137Z,101032.00
2023-02-09T10:08:11.754Z,101027.00
2023-02-09T10:10:52.768Z,101027.00
2023-02-09T10:13:46.377Z,101034.00
2023-02-09T10:16:31.264Z,101036.00
2023-02-09T10:19:06.369Z,101039.00
2023-02-09T10:21:40.285Z,101045.00
2023-02-09T10:24:18.918Z,101044.00
2023-02-09T10:27:09.731Z,101038.00
2023-02-09T10:29:43.059Z,101048.00
2023-02-09T10:32:39.877Z,101048.00
2023-02-09T10:35:20.613Z,101064.00
2023-02-09T10:37:55.346Z,101063.00
2023-02-09T10:40:29.824Z,101066.00
2023-02-09T10:43:13.145Z,101058.00
2023-02-09T10:45:51.536Z,101065.00
2023-02-09T10:48:29.604Z,101053.00
2023-02-09T10:51:04.101Z,101059.00
2023-02-09T10:53:42.004Z,101057.00
2023-02-09T10:56:20.260Z,101057.00
2023-02-09T10:58:57.830Z,101063.00
2023-02-09T11:01:33.384Z,101065.00
2023-02-09T11:04:11.431Z,101076.00
2023-02-09T11:06:49.212Z,101085.00
2023-02-09T11:09:24.778Z,101087.00
2023-02-09T11:11:57.777Z,101079.00
2023-02-09T11:14:30.707Z,101093.00
2023-02-09T11:17:20.832Z,101092.00
2023-02-09T11:20:14.272Z,101086.00
2023-02-09T11:23:23.727Z,101101.00
2023-02-09T11:26:15.719Z,101101.00
2023-02-09T11:29:04.098Z,101108.00
2023-02-09T11:32:00.121Z,101117.00
2023-02-09T11:34:56.276Z,101112.00
2023-02-09T11:37:31.398Z,101116.00
2023-02-09T11:40:25.871Z,101123.00
2023-02-09T11:43:03.783Z,101110.00
2023-02-09T11:45:41.881Z,101115.00
2023-02-09T11:48:25.854Z,101118.00
2023-02-09T11:51:20.524Z,101125.00
2023-02-09T11:54:14.876Z,101131.00
2023-02-09T11:56:49.618Z,101135.00
2023-02-09T11:59:30.531Z,101122.00
2023-02-09T12:02:38.388Z,101126.00
2023-02-09T12:05:13.280Z,101121.00
2023-02-09T12:08:04.645Z,101126.00
2023-02-09T12:10:39.472Z,101128.00
2023-02-09T12:13:26.957Z,101121.00
2023-02-09T12:16:01.665Z,101124.00
2023-02-09T12:18:38.800Z,101118.00
2023-02-09T12:21:12.709Z,101119.00
2023-02-09T12:23:46.544Z,101120.00
2023-02-09T12:26:27.312Z,101106.00
2023-02-09T12:29:19.975Z,101107.00
2023-02-09T12:32:13.653Z,101096.00
2023-02-09T12:34:54.250Z,101100.00
2023-02-09T12:37:31.972Z,101110.00
2023-02-09T12:40:15.137Z,101096.00
2023-02-09T12:42:59.652Z,101113.00
2023-02-09T12:45:40.031Z,101105.00
2023-02-09T12:48:15.259Z,101109.00
2023-02-09T12:50:50.436Z,101108.00
2023-02-09T12:53:31.977Z,101102.00
2023-02-09T12:56:12.703Z,101099.00
2023-02-09T12:58:51.090Z,101099.00
2023-02-09T13:01:24.182Z,101104.00
2023-02-09T13:04:10.286Z,101095.00
2023-02-09T13:06:51.182Z,101100.00
2023-02-09T13:09:29.367Z,101101.00
2023-02-09T13:12:07.114Z,101107.00
2023-02-09T13:14:41.740Z,101111.00
2023-02-09T13:17:31.700Z,101118.00
2023-02-09T13:20:09.221Z,101118.00
2023-02-09T13:22:46.966Z,101122.00
2023-02-09T13:25:39.921Z,101112.00
2023-02-09T13:28:21.206Z,101116.00
2023-02-09T13:30:54.412Z,101118.00
2023-02-09T13:33:32.409Z,101108.00
2023-02-09T13:36:27.041Z,101112.00
2023-02-09T13:39:00.458Z,101103.00
2023-02-09T13:41:43.674Z,101106.00
2023-02-09T13:44:34.018Z,101102.00
2023-02-09T13:47:08.149Z,101102.00
2023-02-09T13:49:41.189Z,101108.00
2023-02-09T13:52:20.318Z,101110.00
2023-02-09T13:54:54.738Z,101102.00
2023-02-09T13:57:32.830Z,101099.00
2023-02-09T14:00:13.217Z,101102.00
2023-02-09T14:02:47.703Z,101101.00
2023-02-09T14:05:25.307Z,101100.00
2023-02-09T14:07:58.420Z,101096.00
2023-02-09T14:10:32.432Z,101095.00
2023-02-09T14:13:13.899Z,101101.00
2023-02-09T14:16:05.792Z,101104.00
2023-02-09T14:19:02.369Z,101104.00
2023-02-09T14:21:38.435Z,101102.00
2023-02-09T14:24:24.213Z,101105.00
2023-02-09T14:27:01.924Z,101108.00
2023-02-09T14:29:36.380Z,101109.00
2023-02-09T14:32:33.046Z,101107.00
2023-02-09T14:35:02.508Z,101107.00
2023-02-09T14:37:35.392Z,101108.00
2023-02-09T14:40:13.668Z,101116.00
2023-02-09T14:43:04.179Z,101111.00
2023-02-09T14:45:48.177Z,101103.00
2023-02-09T14:48:22.991Z,101110.00
2023-02-09T14:50:57.443Z,101111.00
2023-02-09T14:53:35.600Z,101115.00
2023-02-09T14:56:08.663Z,101110.00
2023-02-09T14:58:41.556Z,101115.00
2023-02-09T15:01:14.486Z,101103.00
2023-02-09T15:03:47.368Z,101112.00
2023-02-09T15:06:20.151Z,101114.00
2023-02-09T15:08:52.909Z,101118.00
2023-02-09T15:11:43.468Z,101126.00
2023-02-09T15:14:16.761Z,101124.00
2023-02-09T15:16:49.600Z,101115.00
2023-02-09T15:19:25.858Z,101113.00
2023-02-09T15:22:07.042Z,101113.00
2023-02-09T15:24:32.846Z,101119.00
2023-02-09T15:27:06.331Z,101109.00
2023-02-09T15:29:39.059Z,101109.00
2023-02-09T15:32:17.284Z,101118.00
2023-02-09T15:34:50.690Z,101109.00
2023-02-09T15:37:31.558Z,101113.00
2023-02-09T15:40:18.724Z,101109.00
2023-02-09T15:43:09.022Z,101093.00
2023-02-09T15:45:59.422Z,101108.00
2023-02-09T15:48:33.391Z,101106.00
2023-02-09T15:51:06.368Z,101095.00
2023-02-09T15:53:39.564Z,101106.00
2023-02-09T15:56:13.352Z,101117.00
2023-02-09T15:58:48.486Z,101114.00
2023-02-09T16:01:22.636Z,101118.00
2023-02-09T16:03:58.375Z,101120.00
2023-02-09T16:06:29.550Z,101120.00
2023-02-09T16:09:03.014Z,101124.00
2023-02-09T16:11:38.002Z,101129.00
2023-02-09T16:14:12.354Z,101127.00
2023-02-09T16:16:46.566Z,101136.00
2023-02-09T16:19:24.583Z,101137.00
2023-02-09T16:21:59.181Z,101136.00
2023-02-09T16:24:33.861Z,101135.00
2023-02-09T16:27:08.789Z,101142.00
2023-02-09T16:29:41.509Z,101146.00
2023-02-09T16:32:24.268Z,101146.00
2023-02-09T16:35:07.283Z,101144.00
2023-02-09T16:37:35.083Z,101145.00
2023-02-09T16:40:10.161Z,101157.00
2023-02-09T16:42:43.049Z,101160.00
2023-02-09T16:45:19.657Z,101162.00
2023-02-09T16:47:54.251Z,101152.00
2023-02-09T16:50:38.122Z,101161.00
2023-02-09T16:53:18.937Z,101163.00
2023-02-09T16:55:51.958Z,101164.00
2023-02-09T16:58:24.794Z,101172.00
2023-02-09T17:00:57.910Z,101164.00
2023-02-09T17:03:41.492Z,101163.00
2023-02-09T17:06:16.721Z,101181.00
2023-02-09T17:08:49.760Z,101192.00
2023-02-09T17:11:25.057Z,101197.00
2023-02-09T17:13:58.058Z,101204.00
2023-02-09T17:16:33.236Z,101207.00
2023-02-09T17:19:07.281Z,101199.00
2023-02-09T17:21:42.285Z,101206.00
2023-02-09T17:24:20.051Z,101196.00
2023-02-09T17:26:53.150Z,101208.00
2023-02-09T17:29:30.205Z,101212.00
2023-02-09T17:32:04.557Z,101209.00
2023-02-09T17:34:37.643Z,101209.00
2023-02-09T17:37:11.951Z,101216.00
2023-02-09T17:39:45.103Z,101219.00
2023-02-09T17:42:20.268Z,101219.00
2023-02-09T17:44:53.476Z,101229.00
2023-02-09T17:47:26.277Z,101227.00
2023-02-09T17:49:59.240Z,101227.00
2023-02-09T17:52:33.170Z,101225.00
2023-02-09T17:55:06.342Z,101228.00
2023-02-09T17:57:39.244Z,101225.00
2023-02-09T18:00:12.955Z,101225.00
2023-02-09T18:02:46.448Z,101224.00
2023-02-09T18:05:27.432Z,101225.00
2023-02-09T18:08:00.312Z,101229.00
2023-02-09T18:10:33.226Z,101227.00
2023-02-09T18:13:06.038Z,101238.00
2023-02-09T18:15:41.705Z,101246.00
2023-02-09T18:18:16.990Z,101249.00
2023-02-09T18:20:50.345Z,101245.00
2023-02-09T18:23:24.442Z,101246.00
2023-02-09T18:25:57.508Z,101241.00
2023-02-09T18:28:30.536Z,101248.00
2023-02-09T18:31:03.589Z,101251.00
2023-02-09T18:33:36.454Z,101250.00
2023-02-09T18:36:10.520Z,101254.00
2023-02-09T18:38:53.104Z,101243.00
2023-02-09T18:41:30.926Z,101239.00
2023-02-09T18:44:04.213Z,101240.00
2023-02-09T18:46:37.278Z,101238.00
2023-02-09T18:49:10.292Z,101235.00
2023-02-09T18:51:43.254Z,101237.00
2023-02-09T18:54:16.249Z,101243.00
2023-02-09T18:56:49.305Z,101232.00
2023-02-09T18:59:24.862Z,101232.00
2023-02-09T19:01:57.865Z,101236.00
2023-02-09T19:04:31.077Z,101238.00
2023-02-09T19:07:04.207Z,101227.00
2023-02-09T19:09:37.020Z,101227.00
2023-02-09T19:12:10.198Z,101238.00
2023-02-09T19:14:44.855Z,101233.00
2023-02-09T19:17:33.248Z,101242.00
2023-02-09T19:20:06.427Z,101247.00
2023-02-09T19:22:40.728Z,101258.00
2023-02-09T19:25:13.834Z,101261.00
2023-02-09T19:27:46.749Z,101267.00
2023-02-09T19:30:30.445Z,101263.00
2023-02-09T19:33:04.009Z,101264.00
2023-02-09T19:35:37.338Z,101268.00
2023-02-09T19:38:15.865Z,101272.00
2023-02-09T19:40:52.668Z,101274.00
2023-02-09T19:43:27.359Z,101272.00
2023-02-09T19:46:05.376Z,101269.00
2023-02-09T19:48:41.615Z,101263.00
2023-02-09T19:51:17.056Z,101265.00
2023-02-09T19:53:49.971Z,101263.00
2023-02-09T19:56:24.718Z,101273.00
2023-02-09T19:59:01.937Z,101274.00
2023-02-09T20:01:35.169Z,101275.00
2023-02-09T20:04:08.060Z,101279.00
2023-02-09T20:06:44.254Z,101292.00
2023-02-09T20:09:29.046Z,101290.00
2023-02-09T20:12:06.257Z,101293.00
2023-02-09T20:14:39.135Z,101288.00
2023-02-09T20:17:12.062Z,101295.00
2023-02-09T20:19:47.283Z,101294.00
2023-02-09T20:22:20.406Z,101299.00
2023-02-09T20:24:53.230Z,101301.00
2023-02-09T20:27:26.168Z,101301.00
2023-02-09T20:30:00.166Z,101294.00
2023-02-09T20:32:33.719Z,101300.00
2023-02-09T20:35:07.407Z,101302.00
2023-02-09T20:37:41.998Z,101292.00
2023-02-09T20:40:15.923Z,101297.00
2023-02-09T20:43:05.857Z,101291.00
2023-02-09T20:45:56.053Z,101293.00
2023-02-09T20:48:29.052Z,101300.00
2023-02-09T20:51:03.893Z,101301.00
2023-02-09T20:53:35.974Z,101302.00
2023-02-09T20:56:08.988Z,101307.00
2023-02-09T20:58:41.862Z,101301.00
2023-02-09T21:01:14.920Z,101297.00
2023-02-09T21:03:48.375Z,101297.00
2023-02-09T21:06:22.139Z,101288.00
2023-02-09T21:08:56.226Z,101283.00
2023-02-09T21:11:29.300Z,101282.00
2023-02-09T21:14:03.840Z,101290.00
2023-02-09T21:16:38.234Z,101292.00
2023-02-09T21:19:10.997Z,101288.00
2023-02-09T21:21:44.010Z,101294.00
2023-02-09T21:24:16.912Z,101299.00
2023-02-09T21:26:49.529Z,101298.00
2023-02-09T21:29:22.566Z,101307.00
2023-02-09T21:31:56.709Z,101312.00
2023-02-09T21:34:29.690Z,101309.00
2023-02-09T21:37:02.545Z,101311.00
2023-02-09T21:39:35.937Z,101306.00
2023-02-09T21:42:14.018Z,101299.00
2023-02-09T21:44:47.188Z,101300.00
2023-02-09T21:47:20.005Z,101302.00
2023-02-09T21:49:53.641Z,101310.00
2023-02-09T21:52:26.561Z,101305.00
2023-02-09T21:54:59.478Z,101296.00
2023-02-09T21:57:32.215Z,101301.00
2023-02-09T22:00:06.382Z,101304.00
2023-02-09T22:02:39.589Z,101305.00
2023-02-09T22:05:12.851Z,101304.00
2023-02-09T22:07:47.066Z,101306.00
2023-02-09T22:10:20.594Z,101303.00
2023-02-09T22:12:53.980Z,101303.00
2023-02-09T22:15:26.924Z,101277.00
2023-02-09T22:18:00.413Z,101320.00
2023-02-09T22:20:33.536Z,101302.00
2023-02-09T22:23:06.683Z,101314.00
2023-02-09T22:25:39.831Z,101315.00
2023-02-09T22:28:12.762Z,101318.00
2023-02-09T22:30:45.981Z,101323.00
2023-02-09T22:33:19.231Z,101321.00
2023-02-09T22:35:53.085Z,101309.00
2023-02-09T22:38:26.107Z,101317.00
2023-02-09T22:40:59.122Z,101318.00
2023-02-09T22:43:32.024Z,101308.00
2023-02-09T22:46:05.069Z,101316.00
2023-02-09T22:48:38.100Z,101319.00
2023-02-09T22:51:10.961Z,101325.00
2023-02-09T22:53:43.894Z,101329.00
2023-02-09T22:56:17.457Z,101331.00
2023-02-09T22:58:50.654Z,101334.00
2023-02-09T23:01:24.141Z,101323.00
2023-02-09T23:03:57.257Z,101324.00
2023-02-09T23:06:31.998Z,101332.00
2023-02-09T23:09:06.274Z,101337.00
2023-02-09T23:11:39.495Z,101339.00
2023-02-09T23:14:12.990Z,101340.00
2023-02-09T23:16:47.034Z,101350.00
2023-02-09T23:19:22.123Z,101337.00
2023-02-09T23:21:55.767Z,101341.00
2023-02-09T23:24:28.807Z,101335.00
2023-02-09T23:27:01.687Z,101338.00
2023-02-09T23:29:34.427Z,101329.00
2023-02-09T23:32:07.734Z,101322.00
2023-02-09T23:34:40.813Z,101326.00
2023-02-09T23:37:18.971Z,101325.00
2023-02-09T23:39:48.061Z,101333.00
2023-02-09T23:42:21.336Z,101329.00
2023-02-09T23:44:54.840Z,101329.00
2023-02-09T23:47:27.797Z,101339.00
2023-02-09T23:50:00.621Z,101327.00
2023-02-09T23:52:33.251Z,101325.00
2023-02-09T23:55:06.344Z,101321.00
2023-02-09T23:57:39.321Z,101322.00
